Time;durP1;ratioP1;P1;durP2;ratioP2;P2;SDS_P1;SDS_P2;PMS_P1;PMS_P2;Temp;Humidity;BMP_temperature;BMP_pressure;BME280_temperature;BME280_humidity;BME280_pressure;Samples;Min_cycle;Max_cycle;Signal;HPM_P1;HPM_P2
2021/12/23 00:01:30;;;;;;;;;;;1.20;99.90;;;;;;7350925;19;109957;-81
2021/12/23 00:03:58;;;;;;;;;;;1.20;99.90;;;;;;7348878;19;109830;-80
2021/12/23 00:06:24;;;;;;;;;;;1.20;99.90;;;;;;7350045;19;111978;-82
2021/12/23 00:08:51;;;;;;;;;;;1.10;99.90;;;;;;7355411;19;110543;-81
2021/12/23 00:11:19;;;;;;;;;;;1.10;99.90;;;;;;7348649;19;111014;-82
2021/12/23 00:13:59;;;;;;;;;;;1.10;99.90;;;;;;7349635;19;114656;-80
2021/12/23 00:16:41;;;;;;;;;;;1.10;99.90;;;;;;7348997;19;109212;-81
2021/12/23 00:19:20;;;;;;;;;;;1.00;99.90;;;;;;7350785;19;110826;-82
2021/12/23 00:24:33;;;;;;;;;;;1.00;99.90;;;;;;7350047;19;109238;-81
2021/12/23 00:27:00;;;;;;;;;;;0.90;99.90;;;;;;7349822;19;110676;-83
2021/12/23 00:29:27;;;;;;;;;;;0.90;99.90;;;;;;7347345;19;112230;-80
2021/12/23 00:31:54;;;;;;;;;;;0.90;99.90;;;;;;7354696;19;109800;-80
2021/12/23 00:34:21;;;;;;;;;;;1.00;99.90;;;;;;7347055;19;112311;-82
2021/12/23 00:36:48;;;;;;;;;;;1.00;99.90;;;;;;7349610;19;109323;-82
2021/12/23 00:39:16;;;;;;;;;;;0.90;99.90;;;;;;7348862;19;110616;-81
2021/12/23 00:41:44;;;;;;;;;;;0.90;99.90;;;;;;7349292;19;111259;-81
2021/12/23 00:44:14;;;;;;;;;;;0.90;99.90;;;;;;7348126;19;109728;-81
2021/12/23 00:46:40;;;;;;;;;;;0.90;99.90;;;;;;7349865;19;110589;-81
2021/12/23 00:49:07;;;;;;;;;;;0.90;99.90;;;;;;7344840;19;111877;-80
2021/12/23 00:51:35;;;;;;;;;;;0.80;99.90;;;;;;7350224;19;109359;-81
2021/12/23 00:54:04;;;;;;;;;;;0.80;99.90;;;;;;7354041;19;109460;-82
2021/12/23 00:56:35;;;;;;;;;;;0.80;99.90;;;;;;7349326;19;109740;-81
2021/12/23 00:59:09;;;;;;;;;;;0.80;99.90;;;;;;7346889;19;110761;-82
2021/12/23 01:01:36;;;;;;;;;;;0.80;99.90;;;;;;7347256;19;111974;-82
2021/12/23 01:04:03;;;;;;;;;;;0.80;99.90;;;;;;7347596;19;109290;-82
2021/12/23 01:06:30;;;;;;;;;;;0.80;99.90;;;;;;7348877;19;110494;-82
2021/12/23 01:08:57;;;;;;;;;;;0.80;99.90;;;;;;7348243;19;111672;-81
2021/12/23 01:11:25;;;;;;;;;;;0.80;99.90;;;;;;7348335;19;109292;-82
2021/12/23 01:14:42;;;;;;;;;;;0.70;99.90;;;;;;7349681;19;111840;-81
2021/12/23 01:16:50;;;;;;;;;;;0.80;99.90;;;;;;7351258;19;112380;-80
2021/12/23 01:19:17;;;;;;;;;;;0.80;99.90;;;;;;7349457;19;110568;-81
2021/12/23 01:21:44;;;;;;;;;;;0.80;99.90;;;;;;7346679;19;110194;-82
2021/12/23 01:24:11;;;;;;;;;;;0.90;99.90;;;;;;7348695;19;109324;-81
2021/12/23 01:26:38;;;;;;;;;;;0.90;99.90;;;;;;7346927;19;110877;-80
2021/12/23 01:29:05;;;;;;;;;;;1.00;99.90;;;;;;7347330;19;112069;-82
2021/12/23 01:31:33;;;;;;;;;;;1.00;99.90;;;;;;7346964;19;109861;-83
2021/12/23 01:34:01;;;;;;;;;;;1.00;99.90;;;;;;7348022;19;110974;-82
2021/12/23 01:36:28;;;;;;;;;;;1.00;99.90;;;;;;7351605;19;113406;-81
2021/12/23 01:38:55;;;;;;;;;;;1.00;99.90;;;;;;7347928;19;109701;-81
2021/12/23 01:41:23;;;;;;;;;;;1.00;99.90;;;;;;7346549;19;111768;-81
2021/12/23 01:43:51;;;;;;;;;;;1.00;99.90;;;;;;7347206;19;109447;-82
2021/12/23 01:46:18;;;;;;;;;;;1.10;99.90;;;;;;7346448;19;111566;-82
2021/12/23 01:48:45;;;;;;;;;;;1.10;99.90;;;;;;7347002;19;111830;-81
2021/12/23 01:51:13;;;;;;;;;;;1.10;99.90;;;;;;7345322;19;109733;-81
2021/12/23 01:53:41;;;;;;;;;;;1.10;99.90;;;;;;7346737;19;110849;-80
2021/12/23 01:56:08;;;;;;;;;;;1.10;99.90;;;;;;7346441;19;110464;-83
2021/12/23 01:58:35;;;;;;;;;;;1.20;99.90;;;;;;7352819;19;109827;-81
2021/12/23 02:01:02;;;;;;;;;;;1.20;99.90;;;;;;7342381;19;111842;-82
2021/12/23 02:03:29;;;;;;;;;;;1.20;99.90;;;;;;7345820;19;109770;-82
2021/12/23 02:05:56;;;;;;;;;;;1.10;99.90;;;;;;7346537;19;110842;-80
2021/12/23 02:08:31;;;;;;;;;;;1.20;99.90;;;;;;7345830;19;112447;-82
2021/12/23 02:10:58;;;;;;;;;;;1.20;99.90;;;;;;7342346;19;109904;-81
2021/12/23 02:13:25;;;;;;;;;;;1.10;99.90;;;;;;7348582;19;110870;-81
2021/12/23 02:15:52;;;;;;;;;;;1.10;99.90;;;;;;7344771;19;111816;-82
2021/12/23 02:18:22;;;;;;;;;;;1.20;99.90;;;;;;7347475;19;109301;-82
2021/12/23 02:20:49;;;;;;;;;;;1.20;99.90;;;;;;7350628;19;109931;-83
2021/12/23 02:23:16;;;;;;;;;;;1.20;99.90;;;;;;7346461;19;109741;-82
2021/12/23 02:25:43;;;;;;;;;;;1.20;99.90;;;;;;7345348;19;110216;-80
2021/12/23 02:28:14;;;;;;;;;;;1.20;99.90;;;;;;7345472;19;112601;-81
2021/12/23 02:30:41;;;;;;;;;;;1.20;99.90;;;;;;7343284;19;109436;-81
2021/12/23 02:33:08;;;;;;;;;;;1.30;99.90;;;;;;7345879;19;111063;-80
2021/12/23 02:35:35;;;;;;;;;;;1.30;99.90;;;;;;7345657;19;112239;-82
2021/12/23 02:38:02;;;;;;;;;;;1.30;99.90;;;;;;7344253;19;109538;-81
2021/12/23 02:40:31;;;;;;;;;;;1.30;99.90;;;;;;7345774;19;110711;-81
2021/12/23 02:43:06;;;;;;;;;;;1.30;99.90;;;;;;7350467;19;110664;-81
2021/12/23 02:45:33;;;;;;;;;;;1.20;99.90;;;;;;7345454;19;110400;-81
2021/12/23 02:48:00;;;;;;;;;;;1.20;99.90;;;;;;7344738;19;111839;-82
2021/12/23 02:50:27;;;;;;;;;;;1.30;99.90;;;;;;7345109;19;109289;-82
2021/12/23 02:52:54;;;;;;;;;;;1.20;99.90;;;;;;7343200;19;112262;-82
2021/12/23 02:55:20;;;;;;;;;;;1.30;99.90;;;;;;7345169;19;112333;-81
2021/12/23 02:57:47;;;;;;;;;;;1.30;99.90;;;;;;7346479;19;109412;-81
2021/12/23 03:00:14;;;;;;;;;;;1.30;99.90;;;;;;7345598;19;110960;-82
2021/12/23 03:02:41;;;;;;;;;;;1.30;99.90;;;;;;7344196;19;111950;-82
2021/12/23 03:05:08;;;;;;;;;;;1.30;99.90;;;;;;7350516;19;109822;-82
2021/12/23 03:07:35;;;;;;;;;;;1.30;99.90;;;;;;7345239;19;114924;-82
2021/12/23 03:10:05;;;;;;;;;;;1.30;99.90;;;;;;7344765;19;109927;-81
2021/12/23 03:12:32;;;;;;;;;;;1.30;99.90;;;;;;7345055;19;110582;-81
2021/12/23 03:14:59;;;;;;;;;;;1.40;99.90;;;;;;7342253;19;111019;-81
2021/12/23 03:17:26;;;;;;;;;;;1.40;99.90;;;;;;7343424;19;109396;-82
2021/12/23 03:19:53;;;;;;;;;;;1.30;99.90;;;;;;7342387;19;110557;-83
2021/12/23 03:22:20;;;;;;;;;;;1.20;99.90;;;;;;7344445;19;115002;-81
2021/12/23 03:24:47;;;;;;;;;;;1.20;99.90;;;;;;7344665;19;109789;-82
2021/12/23 03:27:14;;;;;;;;;;;1.20;99.90;;;;;;7349311;19;110020;-81
2021/12/23 03:29:40;;;;;;;;;;;1.20;99.90;;;;;;7344261;19;109229;-80
2021/12/23 03:32:07;;;;;;;;;;;1.20;99.90;;;;;;7342348;19;109066;-82
2021/12/23 03:34:34;;;;;;;;;;;1.20;99.90;;;;;;7344687;19;111868;-81
2021/12/23 03:37:01;;;;;;;;;;;1.10;99.90;;;;;;7344246;19;109306;-82
2021/12/23 03:39:28;;;;;;;;;;;1.10;99.90;;;;;;7345426;19;111041;-80
2021/12/23 03:41:55;;;;;;;;;;;1.10;99.90;;;;;;7341154;19;112341;-80
2021/12/23 03:44:21;;;;;;;;;;;1.10;99.90;;;;;;7345168;19;109314;-81
2021/12/23 03:46:49;;;;;;;;;;;1.00;99.90;;;;;;7346731;19;109389;-81
2021/12/23 03:49:16;;;;;;;;;;;1.10;99.90;;;;;;7345366;19;109246;-81
2021/12/23 03:51:42;;;;;;;;;;;1.10;99.90;;;;;;7341261;19;111024;-82
2021/12/23 03:54:09;;;;;;;;;;;1.10;99.90;;;;;;7342586;19;112847;-82
2021/12/23 03:56:36;;;;;;;;;;;1.00;99.90;;;;;;7342501;19;109724;-82
2021/12/23 03:59:03;;;;;;;;;;;1.00;99.90;;;;;;7344152;19;111008;-82
2021/12/23 04:01:31;;;;;;;;;;;1.00;99.90;;;;;;7342391;19;112338;-81
2021/12/23 04:03:58;;;;;;;;;;;0.90;99.90;;;;;;7342780;19;109828;-82
2021/12/23 04:06:26;;;;;;;;;;;0.90;99.90;;;;;;7341448;19;111057;-82
2021/12/23 04:08:54;;;;;;;;;;;0.90;99.90;;;;;;7347753;19;111987;-83
2021/12/23 04:11:22;;;;;;;;;;;0.90;99.90;;;;;;7341903;19;111672;-81
2021/12/23 04:13:49;;;;;;;;;;;1.00;99.90;;;;;;7341406;19;115150;-81
2021/12/23 04:16:15;;;;;;;;;;;0.90;99.90;;;;;;7342356;19;109793;-81
2021/12/23 04:18:45;;;;;;;;;;;0.80;99.90;;;;;;7341257;19;110823;-82
2021/12/23 04:21:13;;;;;;;;;;;0.80;99.90;;;;;;7341039;19;112748;-82
2021/12/23 04:23:40;;;;;;;;;;;0.70;99.90;;;;;;7344288;19;109670;-82
2021/12/23 04:26:09;;;;;;;;;;;0.70;99.90;;;;;;7349734;19;112202;-81
2021/12/23 04:28:45;;;;;;;;;;;0.80;99.90;;;;;;7348960;19;109939;-81
2021/12/23 04:31:13;;;;;;;;;;;0.80;99.90;;;;;;7354509;19;109272;-82
2021/12/23 04:33:40;;;;;;;;;;;0.80;99.90;;;;;;7349485;19;112632;-82
2021/12/23 04:36:08;;;;;;;;;;;0.80;99.90;;;;;;7348187;19;109321;-82
2021/12/23 04:38:36;;;;;;;;;;;0.90;99.90;;;;;;7349501;19;113332;-82
2021/12/23 04:41:04;;;;;;;;;;;0.90;99.90;;;;;;7346829;19;112372;-81
2021/12/23 04:43:30;;;;;;;;;;;0.90;99.90;;;;;;7349566;19;109370;-82
2021/12/23 04:45:57;;;;;;;;;;;0.90;99.90;;;;;;7348437;19;111748;-83
2021/12/23 04:48:24;;;;;;;;;;;0.90;99.90;;;;;;7348390;19;112235;-81
2021/12/23 04:50:51;;;;;;;;;;;0.90;99.90;;;;;;7345968;19;109921;-82
2021/12/23 04:53:18;;;;;;;;;;;0.90;99.90;;;;;;7353107;19;110919;-82
2021/12/23 04:55:45;;;;;;;;;;;0.90;99.90;;;;;;7346042;19;109819;-82
2021/12/23 04:58:12;;;;;;;;;;;0.90;99.90;;;;;;7348011;19;109218;-83
2021/12/23 05:00:42;;;;;;;;;;;0.90;99.90;;;;;;7347660;19;111788;-81
2021/12/23 05:03:09;;;;;;;;;;;0.90;99.90;;;;;;7348485;19;109490;-82
2021/12/23 05:05:36;;;;;;;;;;;1.00;99.90;;;;;;7349206;19;109406;-82
2021/12/23 05:08:03;;;;;;;;;;;1.00;99.90;;;;;;7347734;19;111872;-82
2021/12/23 05:10:30;;;;;;;;;;;1.00;99.90;;;;;;7347586;19;109356;-81
2021/12/23 05:12:58;;;;;;;;;;;1.10;99.90;;;;;;7348382;19;111499;-82
2021/12/23 05:15:25;;;;;;;;;;;1.00;99.90;;;;;;7351567;19;111861;-83
2021/12/23 05:17:52;;;;;;;;;;;1.00;99.90;;;;;;7347616;19;111426;-82
2021/12/23 05:20:19;;;;;;;;;;;1.00;99.90;;;;;;7347834;19;111964;-81
2021/12/23 05:22:46;;;;;;;;;;;0.90;99.90;;;;;;7347639;19;109374;-82
2021/12/23 05:25:13;;;;;;;;;;;0.90;99.90;;;;;;7348474;19;111114;-81
2021/12/23 05:27:40;;;;;;;;;;;0.90;99.90;;;;;;7344475;19;111695;-83
2021/12/23 05:30:09;;;;;;;;;;;0.90;99.90;;;;;;7346723;19;109858;-82
2021/12/23 05:32:37;;;;;;;;;;;0.90;99.90;;;;;;7345235;19;109078;-82
2021/12/23 05:35:04;;;;;;;;;;;0.90;99.90;;;;;;7344991;19;112085;-82
2021/12/23 05:37:31;;;;;;;;;;;0.90;99.90;;;;;;7352865;19;109350;-82
2021/12/23 05:39:58;;;;;;;;;;;0.90;99.90;;;;;;7346980;19;116016;-82
2021/12/23 05:42:25;;;;;;;;;;;0.90;99.90;;;;;;7342670;19;109736;-82
2021/12/23 05:44:52;;;;;;;;;;;1.00;99.90;;;;;;7345966;19;110941;-82
2021/12/23 05:47:19;;;;;;;;;;;1.00;99.90;;;;;;7344906;19;112058;-82
2021/12/23 05:49:46;;;;;;;;;;;1.00;99.90;;;;;;7345443;19;109428;-82
2021/12/23 05:52:13;;;;;;;;;;;1.10;99.90;;;;;;7345245;19;110977;-81
2021/12/23 05:54:40;;;;;;;;;;;1.10;99.90;;;;;;7346937;19;111623;-82
2021/12/23 05:57:08;;;;;;;;;;;1.20;99.90;;;;;;7351385;19;110481;-83
2021/12/23 05:59:35;;;;;;;;;;;1.20;99.90;;;;;;7344280;19;111443;-83
2021/12/23 06:02:06;;;;;;;;;;;1.20;99.90;;;;;;7345382;19;109459;-82
2021/12/23 06:04:34;;;;;;;;;;;1.20;99.90;;;;;;7345248;19;110533;-81
2021/12/23 06:07:02;;;;;;;;;;;1.20;99.90;;;;;;7345848;19;110061;-81
2021/12/23 06:09:29;;;;;;;;;;;1.20;99.90;;;;;;7343967;19;109750;-83
2021/12/23 06:11:56;;;;;;;;;;;1.20;99.90;;;;;;7344116;19;111176;-82
2021/12/23 06:14:23;;;;;;;;;;;1.20;99.90;;;;;;7343203;19;116811;-80
2021/12/23 06:16:49;;;;;;;;;;;1.20;99.90;;;;;;7342880;19;109517;-81
2021/12/23 06:19:16;;;;;;;;;;;1.30;99.90;;;;;;7350003;19;111005;-82
2021/12/23 06:21:43;;;;;;;;;;;1.30;99.90;;;;;;7345710;19;109261;-83
2021/12/23 06:24:10;;;;;;;;;;;1.30;99.90;;;;;;7344436;19;109887;-83
2021/12/23 06:26:37;;;;;;;;;;;1.20;99.90;;;;;;7344110;19;112012;-81
2021/12/23 06:29:04;;;;;;;;;;;1.30;99.90;;;;;;7345758;19;109554;-82
2021/12/23 06:31:32;;;;;;;;;;;1.30;99.90;;;;;;7343139;19;110710;-81
2021/12/23 06:33:58;;;;;;;;;;;1.20;99.90;;;;;;7344813;19;112859;-81
2021/12/23 06:36:25;;;;;;;;;;;1.20;99.90;;;;;;7346282;19;109392;-84
2021/12/23 06:38:52;;;;;;;;;;;1.20;99.90;;;;;;7345607;19;112976;-83
2021/12/23 06:41:19;;;;;;;;;;;1.30;99.90;;;;;;7348976;19;112236;-81
2021/12/23 06:43:46;;;;;;;;;;;1.30;99.90;;;;;;7345524;19;112264;-81
2021/12/23 06:46:13;;;;;;;;;;;1.30;99.90;;;;;;7343986;19;112146;-82
2021/12/23 06:48:40;;;;;;;;;;;1.20;99.90;;;;;;7344068;19;109447;-82
2021/12/23 06:51:07;;;;;;;;;;;1.20;99.90;;;;;;7344783;19;111468;-81
2021/12/23 06:53:34;;;;;;;;;;;1.20;99.90;;;;;;7344746;19;112154;-81
2021/12/23 06:56:01;;;;;;;;;;;1.30;99.90;;;;;;7344155;19;109748;-81
2021/12/23 06:58:28;;;;;;;;;;;1.30;99.90;;;;;;7342417;19;110962;-81
2021/12/23 07:00:55;;;;;;;;;;;1.30;99.90;;;;;;7342054;19;112294;-81
2021/12/23 07:03:29;;;;;;;;;;;1.30;99.90;;;;;;7349972;19;109763;-81
2021/12/23 07:06:04;;;;;;;;;;;1.30;99.90;;;;;;7343059;19;112112;-81
2021/12/23 07:08:34;;;;;;;;;;;1.30;99.90;;;;;;7344299;19;109440;-81
2021/12/23 07:11:01;;;;;;;;;;;1.30;99.90;;;;;;7344762;19;111166;-81
2021/12/23 07:13:28;;;;;;;;;;;1.30;99.90;;;;;;7344523;19;112014;-82
2021/12/23 07:15:56;;;;;;;;;;;1.30;99.90;;;;;;7344035;19;110059;-81
2021/12/23 07:18:23;;;;;;;;;;;1.30;99.90;;;;;;7345534;19;111246;-81
2021/12/23 07:20:49;;;;;;;;;;;1.30;99.90;;;;;;7343338;19;112161;-81
2021/12/23 07:23:16;;;;;;;;;;;1.30;99.90;;;;;;7345713;19;109507;-81
2021/12/23 07:25:43;;;;;;;;;;;1.30;99.90;;;;;;7349359;19;110561;-82
2021/12/23 07:28:10;;;;;;;;;;;1.40;99.90;;;;;;7359804;19;109443;-81
2021/12/23 07:30:37;;;;;;;;;;;1.40;99.90;;;;;;7350565;19;110786;-83
2021/12/23 07:33:04;;;;;;;;;;;1.40;99.90;;;;;;7341655;19;112894;-83
2021/12/23 07:35:31;;;;;;;;;;;1.40;99.90;;;;;;7343158;19;109738;-82
2021/12/23 07:38:00;;;;;;;;;;;1.40;99.90;;;;;;7344091;19;111359;-83
2021/12/23 07:40:28;;;;;;;;;;;1.40;99.90;;;;;;7343863;19;112140;-83
2021/12/23 07:42:57;;;;;;;;;;;1.40;99.90;;;;;;7342690;19;110564;-83
2021/12/23 07:45:25;;;;;;;;;;;1.40;99.90;;;;;;7349530;19;110633;-83
2021/12/23 07:47:52;;;;;;;;;;;1.40;99.90;;;;;;7342652;19;110036;-83
2021/12/23 07:50:19;;;;;;;;;;;1.40;99.90;;;;;;7344265;19;109298;-83
2021/12/23 07:52:46;;;;;;;;;;;1.50;99.90;;;;;;7339343;19;111274;-83
2021/12/23 07:55:14;;;;;;;;;;;1.60;99.90;;;;;;7344315;19;109314;-84
2021/12/23 07:57:41;;;;;;;;;;;1.60;99.90;;;;;;7341455;19;111076;-83
2021/12/23 08:00:08;;;;;;;;;;;1.60;99.90;;;;;;7346791;19;112572;-83
2021/12/23 08:02:35;;;;;;;;;;;1.70;99.90;;;;;;7349657;19;109315;-84
2021/12/23 08:05:03;;;;;;;;;;;1.70;99.90;;;;;;7348844;19;111054;-84
2021/12/23 08:07:30;;;;;;;;;;;1.70;99.90;;;;;;7355980;19;110815;-83
2021/12/23 08:09:56;;;;;;;;;;;1.70;99.90;;;;;;7349565;19;111816;-82
2021/12/23 08:12:23;;;;;;;;;;;1.70;99.90;;;;;;7348032;19;112183;-83
2021/12/23 08:14:50;;;;;;;;;;;1.70;99.90;;;;;;7350744;19;109223;-84
2021/12/23 08:17:34;;;;;;;;;;;1.70;99.90;;;;;;7349605;19;112811;-84
2021/12/23 08:20:03;;;;;;;;;;;1.80;99.90;;;;;;7349792;19;111733;-84
2021/12/23 08:22:31;;;;;;;;;;;1.70;99.90;;;;;;7349136;19;109235;-83
2021/12/23 08:24:58;;;;;;;;;;;1.70;99.90;;;;;;7347935;19;111239;-83
2021/12/23 08:27:28;;;;;;;;;;;1.70;99.90;;;;;;7348691;19;111152;-83
2021/12/23 08:29:55;;;;;;;;;;;1.70;99.90;;;;;;7352743;19;109307;-83
2021/12/23 08:32:22;;;;;;;;;;;1.70;99.90;;;;;;7348905;19;112095;-83
2021/12/23 08:34:49;;;;;;;;;;;1.70;99.90;;;;;;7347598;19;109949;-83
2021/12/23 08:37:16;;;;;;;;;;;1.80;99.90;;;;;;7350637;19;110728;-84
2021/12/23 08:39:43;;;;;;;;;;;1.80;99.90;;;;;;7349306;19;111909;-83
2021/12/23 08:42:10;;;;;;;;;;;1.90;99.90;;;;;;7349403;19;109526;-83
2021/12/23 08:44:40;;;;;;;;;;;1.90;99.90;;;;;;7348928;19;111395;-83
2021/12/23 08:47:08;;;;;;;;;;;2.00;99.90;;;;;;7347180;19;113429;-83
2021/12/23 08:49:35;;;;;;;;;;;2.00;99.90;;;;;;7350134;19;110041;-83
2021/12/23 08:52:02;;;;;;;;;;;2.00;99.90;;;;;;7354645;19;111551;-83
2021/12/23 08:54:29;;;;;;;;;;;2.10;99.90;;;;;;7349817;19;109378;-84
2021/12/23 08:56:56;;;;;;;;;;;2.10;99.90;;;;;;7348656;19;110938;-83
2021/12/23 08:59:23;;;;;;;;;;;2.10;99.90;;;;;;7347758;19;112586;-84
2021/12/23 09:01:50;;;;;;;;;;;2.20;99.90;;;;;;7346178;19;109775;-84
2021/12/23 09:04:17;;;;;;;;;;;2.20;99.90;;;;;;7349080;19;111032;-84
2021/12/23 09:06:44;;;;;;;;;;;2.20;99.90;;;;;;7348451;19;111800;-84
2021/12/23 09:09:11;;;;;;;;;;;2.20;99.90;;;;;;7348533;19;109922;-84
2021/12/23 09:11:38;;;;;;;;;;;2.20;99.90;;;;;;7348949;19;109566;-84
2021/12/23 09:14:06;;;;;;;;;;;2.20;99.90;;;;;;7353728;19;111825;-84
2021/12/23 09:16:33;;;;;;;;;;;2.30;99.90;;;;;;7349489;19;110986;-84
2021/12/23 09:19:00;;;;;;;;;;;2.30;99.90;;;;;;7346883;19;112121;-84
2021/12/23 09:21:27;;;;;;;;;;;2.40;99.90;;;;;;7348231;19;109607;-84
2021/12/23 09:24:00;;;;;;;;;;;2.30;99.90;;;;;;7349008;19;109552;-83
2021/12/23 09:26:28;;;;;;;;;;;2.40;99.90;;;;;;7348874;19;111773;-84
2021/12/23 09:29:07;;;;;;;;;;;2.40;99.90;;;;;;7347446;19;109605;-84
2021/12/23 09:34:20;;;;;;;;;;;2.40;99.90;;;;;;7347723;19;112050;-83
2021/12/23 09:36:47;;;;;;;;;;;2.50;99.90;;;;;;7354014;19;109347;-84
2021/12/23 09:39:14;;;;;;;;;;;2.50;99.90;;;;;;7349048;19;112344;-83
2021/12/23 09:41:42;;;;;;;;;;;2.50;99.90;;;;;;7347822;19;109308;-84
2021/12/23 09:44:09;;;;;;;;;;;2.60;99.90;;;;;;7348957;19;109377;-85
2021/12/23 09:46:37;;;;;;;;;;;2.50;99.90;;;;;;7346893;19;112455;-85
2021/12/23 09:49:05;;;;;;;;;;;2.60;99.90;;;;;;7345804;19;109788;-85
2021/12/23 09:51:33;;;;;;;;;;;2.70;99.90;;;;;;7347809;19;110681;-84
2021/12/23 09:54:02;;;;;;;;;;;2.70;99.90;;;;;;7343474;19;111743;-84
2021/12/23 09:56:30;;;;;;;;;;;2.70;99.90;;;;;;7354105;19;109327;-85
2021/12/23 09:58:58;;;;;;;;;;;2.80;99.90;;;;;;7345045;19;112250;-84
2021/12/23 10:01:26;;;;;;;;;;;2.80;99.90;;;;;;7348343;19;109758;-84
2021/12/23 10:03:53;;;;;;;;;;;2.90;99.90;;;;;;7347083;19;110640;-84
2021/12/23 10:06:20;;;;;;;;;;;2.90;99.90;;;;;;7347288;19;110705;-84
2021/12/23 10:08:47;;;;;;;;;;;2.90;99.90;;;;;;7345192;19;109373;-84
2021/12/23 10:11:56;;;;;;;;;;;2.90;99.90;;;;;;7345419;19;110796;-83
2021/12/23 10:31:19;;;;;;;;;;;3.30;99.90;;;;;;7345827;19;109320;-83
2021/12/23 10:37:04;;;;;;;;;;;3.40;99.90;;;;;;7342052;19;110984;-83
2021/12/23 10:39:23;;;;;;;;;;;3.60;99.90;;;;;;7345583;19;109341;-84
2021/12/23 10:41:49;;;;;;;;;;;3.70;99.90;;;;;;7344597;19;110972;-83
2021/12/23 10:44:28;;;;;;;;;;;3.90;99.90;;;;;;7348940;19;115769;-85
2021/12/23 10:46:55;;;;;;;;;;;3.90;99.90;;;;;;7343616;19;110779;-84
2021/12/23 10:49:42;;;;;;;;;;;4.00;99.90;;;;;;7346133;19;112156;-83
2021/12/23 10:52:19;;;;;;;;;;;4.00;99.90;;;;;;7345626;19;109091;-84
2021/12/23 11:00:10;;;;;;;;;;;4.20;99.90;;;;;;7346258;19;109285;-84
2021/12/23 11:02:39;;;;;;;;;;;4.30;99.90;;;;;;7345398;19;110693;-85
2021/12/23 11:05:13;;;;;;;;;;;4.40;99.90;;;;;;7344622;19;111780;-84
2021/12/23 11:07:54;;;;;;;;;;;4.30;99.90;;;;;;7349141;19;109226;-85
2021/12/23 11:10:39;;;;;;;;;;;4.40;99.90;;;;;;7343846;19;111948;-85
2021/12/23 11:27:39;;;;;;;;;;;4.70;99.90;;;;;;7343361;19;112169;-83
2021/12/23 11:43:57;;;;;;;;;;;5.00;99.90;;;;;;7349368;19;109289;-83
2021/12/23 11:46:28;;;;;;;;;;;5.00;99.90;;;;;;7348667;19;110649;-84
2021/12/23 11:48:56;;;;;;;;;;;5.10;99.90;;;;;;7350079;19;111794;-83
2021/12/23 11:53:58;;;;;;;;;;;5.10;99.90;;;;;;7350479;19;111030;-83
2021/12/23 11:56:26;;;;;;;;;;;5.20;99.90;;;;;;7355222;19;112185;-83
2021/12/23 11:58:57;;;;;;;;;;;5.20;99.90;;;;;;7351145;19;113696;-84
2021/12/23 12:01:26;;;;;;;;;;;5.30;99.90;;;;;;7344733;19;113646;-83
2021/12/23 12:04:04;;;;;;;;;;;5.40;99.90;;;;;;7347735;19;109974;-83
2021/12/23 12:06:33;;;;;;;;;;;5.40;99.90;;;;;;7347603;19;110570;-83
2021/12/23 12:09:32;;;;;;;;;;;5.50;99.90;;;;;;7347083;19;112470;-83
2021/12/23 12:11:59;;;;;;;;;;;5.60;99.90;;;;;;7348573;19;109546;-83
2021/12/23 12:14:39;;;;;;;;;;;5.60;99.90;;;;;;7344826;19;111209;-84
2021/12/23 12:19:57;;;;;;;;;;;5.70;99.90;;;;;;7349127;19;112316;-84
2021/12/23 12:22:47;;;;;;;;;;;5.70;99.90;;;;;;7343843;19;110967;-83
2021/12/23 12:25:47;;;;;;;;;;;5.80;99.90;;;;;;7347167;19;110152;-85
2021/12/23 12:28:17;;;;;;;;;;;5.80;99.90;;;;;;7346330;19;111241;-84
2021/12/23 12:30:44;;;;;;;;;;;5.80;99.90;;;;;;7349072;19;112115;-83
2021/12/23 12:33:26;;;;;;;;;;;5.80;99.90;;;;;;7350138;19;109490;-83
2021/12/23 12:36:02;;;;;;;;;;;5.90;99.90;;;;;;7350338;19;112683;-85
2021/12/23 12:38:31;;;;;;;;;;;5.90;99.90;;;;;;7350416;19;111933;-84
2021/12/23 12:41:06;;;;;;;;;;;5.90;99.90;;;;;;7355266;19;109355;-85
2021/12/23 12:43:38;;;;;;;;;;;5.90;99.90;;;;;;7349179;19;111885;-83
2021/12/23 12:46:06;;;;;;;;;;;6.00;99.90;;;;;;7347218;19;109241;-85
2021/12/23 12:48:51;;;;;;;;;;;6.00;99.90;;;;;;7347833;19;110829;-83
2021/12/23 12:51:19;;;;;;;;;;;6.00;99.90;;;;;;7349248;19;112148;-85
2021/12/23 12:53:55;;;;;;;;;;;6.10;99.90;;;;;;7347094;19;109431;-85
2021/12/23 12:56:22;;;;;;;;;;;6.10;99.90;;;;;;7348967;19;111588;-83
2021/12/23 12:58:54;;;;;;;;;;;6.20;99.90;;;;;;7347177;19;112405;-85
2021/12/23 13:01:37;;;;;;;;;;;6.20;99.90;;;;;;7350283;19;109197;-85
2021/12/23 13:04:06;;;;;;;;;;;6.20;99.90;;;;;;7354293;19;111817;-86
2021/12/23 13:06:37;;;;;;;;;;;6.20;99.90;;;;;;7345236;19;109414;-85
2021/12/23 13:09:05;;;;;;;;;;;6.30;99.90;;;;;;7347101;19;112430;-85
2021/12/23 13:11:35;;;;;;;;;;;6.20;99.90;;;;;;7347613;19;112099;-85
2021/12/23 13:14:04;;;;;;;;;;;6.20;99.90;;;;;;7348552;19;109418;-84
2021/12/23 13:16:31;;;;;;;;;;;6.20;99.90;;;;;;7348551;19;111749;-84
2021/12/23 13:19:13;;;;;;;;;;;6.20;99.90;;;;;;7348919;19;111788;-85
2021/12/23 13:21:41;;;;;;;;;;;6.20;99.90;;;;;;7347301;19;109330;-86
2021/12/23 13:24:12;;;;;;;;;;;6.30;99.90;;;;;;7347288;19;110533;-83
2021/12/23 13:26:39;;;;;;;;;;;6.30;99.90;;;;;;7352369;19;110159;-83
2021/12/23 13:29:08;;;;;;;;;;;6.30;99.90;;;;;;7345406;19;111459;-84
2021/12/23 13:31:37;;;;;;;;;;;6.30;99.90;;;;;;7345969;19;112102;-83
2021/12/23 13:34:05;;;;;;;;;;;6.40;99.90;;;;;;7345782;19;109299;-83
2021/12/23 13:36:34;;;;;;;;;;;6.30;99.90;;;;;;7349863;19;110232;-84
2021/12/23 13:39:03;;;;;;;;;;;6.40;99.90;;;;;;7346411;19;114418;-86
2021/12/23 13:41:31;;;;;;;;;;;6.40;99.90;;;;;;7347908;19;109534;-85
2021/12/23 13:44:14;;;;;;;;;;;6.40;99.90;;;;;;7340755;19;111555;-85
2021/12/23 13:46:41;;;;;;;;;;;6.40;99.90;;;;;;7347434;19;112067;-86
2021/12/23 13:49:09;;;;;;;;;;;6.40;99.90;;;;;;7353373;19;109296;-86
2021/12/23 13:51:37;;;;;;;;;;;6.40;99.90;;;;;;7346772;19;112483;-85
2021/12/23 13:54:15;;;;;;;;;;;6.50;99.90;;;;;;7346726;19;109302;-84
2021/12/23 13:56:43;;;;;;;;;;;6.40;99.90;;;;;;7347379;19;110891;-85
2021/12/23 13:59:10;;;;;;;;;;;6.50;99.90;;;;;;7344679;19;112066;-85
2021/12/23 14:01:54;;;;;;;;;;;6.50;99.90;;;;;;7347474;19;109380;-84
2021/12/23 14:04:47;;;;;;;;;;;6.50;99.90;;;;;;7344981;19;110971;-85
2021/12/23 14:07:21;;;;;;;;;;;6.50;99.90;;;;;;7345215;19;112213;-84
2021/12/23 14:09:48;;;;;;;;;;;6.50;99.90;;;;;;7345903;19;110491;-83
2021/12/23 14:12:17;;;;;;;;;;;6.50;99.90;;;;;;7352242;19;111440;-83
2021/12/23 14:14:50;;;;;;;;;;;6.50;99.90;;;;;;7345515;19;109310;-84
2021/12/23 14:17:23;;;;;;;;;;;6.50;99.90;;;;;;7344992;19;111170;-83
2021/12/23 14:23:12;;;;;;;;;;;6.50;99.90;;;;;;7347056;19;110778;-84
2021/12/23 14:23:12;;;;;;;;;;;6.50;99.90;;;;;;7346300;19;109287;-84
2021/12/23 14:25:41;;;;;;;;;;;6.50;99.90;;;;;;7345324;19;110712;-83
2021/12/23 14:28:08;;;;;;;;;;;6.40;99.90;;;;;;7347341;19;112704;-85
2021/12/23 14:30:58;;;;;;;;;;;6.40;99.90;;;;;;7346480;19;109332;-84
2021/12/23 14:33:25;;;;;;;;;;;6.50;99.90;;;;;;7351684;19;110838;-84
2021/12/23 14:36:03;;;;;;;;;;;6.50;99.90;;;;;;7343847;19;109301;-85
2021/12/23 14:38:35;;;;;;;;;;;6.50;99.90;;;;;;7344667;19;111298;-83
2021/12/23 14:41:05;;;;;;;;;;;6.50;99.90;;;;;;7345319;19;113428;-84
2021/12/23 14:43:53;;;;;;;;;;;6.50;99.90;;;;;;7344369;19;109377;-84
2021/12/23 14:46:22;;;;;;;;;;;6.50;99.90;;;;;;7346398;19;110634;-83
2021/12/23 14:51:31;;;;;;;;;;;6.40;99.90;;;;;;7346413;19;109263;-84
2021/12/23 14:54:05;;;;;;;;;;;6.40;99.90;;;;;;7343548;19;109604;-84
2021/12/23 14:56:32;;;;;;;;;;;6.40;99.90;;;;;;7350264;19;112316;-85
2021/12/23 14:59:11;;;;;;;;;;;6.30;99.90;;;;;;7346467;19;110640;-84
2021/12/23 15:01:39;;;;;;;;;;;6.30;99.90;;;;;;7342466;19;111860;-86
2021/12/23 15:04:08;;;;;;;;;;;6.30;99.90;;;;;;7344604;19;109384;-84
2021/12/23 15:06:55;;;;;;;;;;;6.30;99.90;;;;;;7345357;19;111131;-85
2021/12/23 15:09:22;;;;;;;;;;;6.30;99.90;;;;;;7341733;19;111458;-86
2021/12/23 15:11:49;;;;;;;;;;;6.30;99.90;;;;;;7345874;19;111003;-83
2021/12/23 15:14:17;;;;;;;;;;;6.30;99.90;;;;;;7342842;19;110755;-83
2021/12/23 15:16:44;;;;;;;;;;;6.30;99.90;;;;;;7344872;19;112031;-84
2021/12/23 15:19:21;;;;;;;;;;;6.30;99.90;;;;;;7348933;19;109378;-86
2021/12/23 15:21:54;;;;;;;;;;;6.20;99.90;;;;;;7344835;19;110428;-81
2021/12/23 15:24:25;;;;;;;;;;;6.20;99.90;;;;;;7344704;19;109356;-82
2021/12/23 15:27:22;;;;;;;;;;;6.20;99.90;;;;;;7344234;19;113344;-85
2021/12/23 15:29:50;;;;;;;;;;;6.20;99.90;;;;;;7344449;19;112117;-82
2021/12/23 15:32:24;;;;;;;;;;;6.20;99.90;;;;;;7342897;19;109460;-83
2021/12/23 15:34:59;;;;;;;;;;;6.20;99.90;;;;;;7337522;19;111090;-82
2021/12/23 15:37:26;;;;;;;;;;;6.10;99.90;;;;;;7339643;19;111949;-83